sensor_id;sensor_type;location;lat;lon;timestamp;P1;durP1;ratioP1;P2;durP2;ratioP2
13415;SDS011;6779;50.150;8.680;2022-12-13T00:01:53;39.43;;;16.37;;
13415;SDS011;6779;50.150;8.680;2022-12-13T00:04:19;43.17;;;17.70;;
13415;SDS011;6779;50.150;8.680;2022-12-13T00:06:47;38.17;;;16.90;;
13415;SDS011;6779;50.150;8.680;2022-12-13T00:09:14;38.03;;;16.27;;
13415;SDS011;6779;50.150;8.680;2022-12-13T00:11:41;35.13;;;16.30;;
13415;SDS011;6779;50.150;8.680;2022-12-13T00:14:07;35.13;;;15.30;;
13415;SDS011;6779;50.150;8.680;2022-12-13T00:16:33;36.70;;;16.93;;
13415;SDS011;6779;50.150;8.680;2022-12-13T00:18:58;33.97;;;15.93;;
13415;SDS011;6779;50.150;8.680;2022-12-13T00:21:26;43.07;;;17.77;;
13415;SDS011;6779;50.150;8.680;2022-12-13T00:23:53;38.47;;;17.27;;
13415;SDS011;6779;50.150;8.680;2022-12-13T00:26:20;37.90;;;16.37;;
13415;SDS011;6779;50.150;8.680;2022-12-13T00:28:48;42.70;;;17.10;;
13415;SDS011;6779;50.150;8.680;2022-12-13T00:31:16;40.87;;;16.90;;
13415;SDS011;6779;50.150;8.680;2022-12-13T00:33:42;40.57;;;16.83;;
13415;SDS011;6779;50.150;8.680;2022-12-13T00:36:09;43.73;;;17.30;;
13415;SDS011;6779;50.150;8.680;2022-12-13T00:38:35;35.77;;;16.23;;
13415;SDS011;6779;50.150;8.680;2022-12-13T00:41:11;43.57;;;18.10;;
13415;SDS011;6779;50.150;8.680;2022-12-13T00:43:38;37.83;;;16.37;;
13415;SDS011;6779;50.150;8.680;2022-12-13T00:46:03;40.63;;;16.27;;
13415;SDS011;6779;50.150;8.680;2022-12-13T00:48:30;34.27;;;15.33;;
13415;SDS011;6779;50.150;8.680;2022-12-13T00:50:56;44.30;;;16.83;;
13415;SDS011;6779;50.150;8.680;2022-12-13T00:53:21;36.60;;;15.23;;
13415;SDS011;6779;50.150;8.680;2022-12-13T00:55:47;42.17;;;17.10;;
13415;SDS011;6779;50.150;8.680;2022-12-13T00:58:12;46.37;;;17.70;;
13415;SDS011;6779;50.150;8.680;2022-12-13T01:00:38;40.17;;;16.43;;
13415;SDS011;6779;50.150;8.680;2022-12-13T01:03:03;40.90;;;17.20;;
13415;SDS011;6779;50.150;8.680;2022-12-13T01:05:44;38.90;;;17.00;;
13415;SDS011;6779;50.150;8.680;2022-12-13T01:08:13;41.17;;;17.50;;
13415;SDS011;6779;50.150;8.680;2022-12-13T01:10:45;42.83;;;17.00;;
13415;SDS011;6779;50.150;8.680;2022-12-13T01:13:11;44.77;;;19.10;;
13415;SDS011;6779;50.150;8.680;2022-12-13T01:15:41;46.60;;;16.53;;
13415;SDS011;6779;50.150;8.680;2022-12-13T01:18:08;37.57;;;15.47;;
13415;SDS011;6779;50.150;8.680;2022-12-13T01:20:34;47.40;;;16.10;;
13415;SDS011;6779;50.150;8.680;2022-12-13T01:22:59;42.50;;;16.77;;
13415;SDS011;6779;50.150;8.680;2022-12-13T01:25:25;43.23;;;17.37;;
13415;SDS011;6779;50.150;8.680;2022-12-13T01:27:50;34.03;;;15.80;;
13415;SDS011;6779;50.150;8.680;2022-12-13T01:30:16;40.10;;;17.20;;
13415;SDS011;6779;50.150;8.680;2022-12-13T01:32:41;38.13;;;16.10;;
13415;SDS011;6779;50.150;8.680;2022-12-13T01:35:07;36.30;;;14.60;;
13415;SDS011;6779;50.150;8.680;2022-12-13T01:37:33;40.40;;;16.30;;
13415;SDS011;6779;50.150;8.680;2022-12-13T01:40:00;34.93;;;15.83;;
13415;SDS011;6779;50.150;8.680;2022-12-13T01:42:27;36.13;;;16.17;;
13415;SDS011;6779;50.150;8.680;2022-12-13T01:50:06;45.37;;;16.13;;
13415;SDS011;6779;50.150;8.680;2022-12-13T01:52:34;42.23;;;16.73;;
13415;SDS011;6779;50.150;8.680;2022-12-13T01:55:00;37.67;;;15.30;;
13415;SDS011;6779;50.150;8.680;2022-12-13T01:57:31;40.23;;;15.97;;
13415;SDS011;6779;50.150;8.680;2022-12-13T01:59:59;36.03;;;16.20;;
13415;SDS011;6779;50.150;8.680;2022-12-13T02:02:25;42.27;;;16.10;;
13415;SDS011;6779;50.150;8.680;2022-12-13T02:04:51;39.00;;;15.57;;
13415;SDS011;6779;50.150;8.680;2022-12-13T02:07:23;42.40;;;15.63;;
13415;SDS011;6779;50.150;8.680;2022-12-13T02:09:51;40.07;;;16.40;;
13415;SDS011;6779;50.150;8.680;2022-12-13T02:12:21;36.27;;;15.23;;
13415;SDS011;6779;50.150;8.680;2022-12-13T02:14:47;45.30;;;16.70;;
13415;SDS011;6779;50.150;8.680;2022-12-13T02:20:15;32.37;;;15.00;;
13415;SDS011;6779;50.150;8.680;2022-12-13T02:28:53;39.97;;;16.33;;
13415;SDS011;6779;50.150;8.680;2022-12-13T02:31:46;36.97;;;15.20;;
13415;SDS011;6779;50.150;8.680;2022-12-13T02:34:26;34.83;;;13.53;;
13415;SDS011;6779;50.150;8.680;2022-12-13T02:37:02;37.83;;;14.23;;
13415;SDS011;6779;50.150;8.680;2022-12-13T02:39:41;33.30;;;15.17;;
13415;SDS011;6779;50.150;8.680;2022-12-13T02:42:15;39.87;;;16.07;;
13415;SDS011;6779;50.150;8.680;2022-12-13T02:44:50;38.77;;;15.50;;
13415;SDS011;6779;50.150;8.680;2022-12-13T02:47:22;36.80;;;14.43;;
13415;SDS011;6779;50.150;8.680;2022-12-13T02:49:50;39.60;;;14.40;;
13415;SDS011;6779;50.150;8.680;2022-12-13T02:52:20;37.17;;;15.23;;
13415;SDS011;6779;50.150;8.680;2022-12-13T02:54:49;31.87;;;12.77;;
13415;SDS011;6779;50.150;8.680;2022-12-13T02:57:34;29.83;;;13.20;;
13415;SDS011;6779;50.150;8.680;2022-12-13T03:00:09;36.87;;;14.00;;
13415;SDS011;6779;50.150;8.680;2022-12-13T03:02:51;37.80;;;13.10;;
13415;SDS011;6779;50.150;8.680;2022-12-13T03:11:19;33.50;;;12.87;;
13415;SDS011;6779;50.150;8.680;2022-12-13T03:13:53;36.67;;;14.13;;
13415;SDS011;6779;50.150;8.680;2022-12-13T03:18:59;41.77;;;13.30;;
13415;SDS011;6779;50.150;8.680;2022-12-13T03:21:26;33.87;;;13.23;;
13415;SDS011;6779;50.150;8.680;2022-12-13T03:23:53;36.63;;;13.93;;
13415;SDS011;6779;50.150;8.680;2022-12-13T03:26:20;34.57;;;12.80;;
13415;SDS011;6779;50.150;8.680;2022-12-13T03:28:48;33.87;;;14.70;;
13415;SDS011;6779;50.150;8.680;2022-12-13T03:31:14;32.43;;;12.93;;
13415;SDS011;6779;50.150;8.680;2022-12-13T03:33:40;43.23;;;14.20;;
13415;SDS011;6779;50.150;8.680;2022-12-13T03:36:05;28.60;;;12.47;;
13415;SDS011;6779;50.150;8.680;2022-12-13T03:38:32;39.87;;;14.33;;
13415;SDS011;6779;50.150;8.680;2022-12-13T03:41:00;35.37;;;12.93;;
13415;SDS011;6779;50.150;8.680;2022-12-13T03:43:28;29.13;;;13.60;;
13415;SDS011;6779;50.150;8.680;2022-12-13T03:45:54;32.73;;;14.10;;
13415;SDS011;6779;50.150;8.680;2022-12-13T03:48:20;37.27;;;13.77;;
13415;SDS011;6779;50.150;8.680;2022-12-13T03:50:46;40.30;;;13.17;;
13415;SDS011;6779;50.150;8.680;2022-12-13T03:53:12;38.60;;;12.37;;
13415;SDS011;6779;50.150;8.680;2022-12-13T03:55:38;39.03;;;12.43;;
13415;SDS011;6779;50.150;8.680;2022-12-13T03:58:03;34.80;;;12.50;;
13415;SDS011;6779;50.150;8.680;2022-12-13T04:00:29;30.90;;;12.27;;
13415;SDS011;6779;50.150;8.680;2022-12-13T04:02:54;31.50;;;12.33;;
13415;SDS011;6779;50.150;8.680;2022-12-13T04:05:20;36.07;;;13.70;;
13415;SDS011;6779;50.150;8.680;2022-12-13T04:07:46;33.13;;;13.20;;
13415;SDS011;6779;50.150;8.680;2022-12-13T04:10:12;33.00;;;13.03;;
13415;SDS011;6779;50.150;8.680;2022-12-13T04:12:37;34.50;;;12.90;;
13415;SDS011;6779;50.150;8.680;2022-12-13T04:15:22;34.77;;;12.63;;
13415;SDS011;6779;50.150;8.680;2022-12-13T04:17:47;36.63;;;14.07;;
13415;SDS011;6779;50.150;8.680;2022-12-13T04:20:13;34.03;;;13.37;;
13415;SDS011;6779;50.150;8.680;2022-12-13T04:22:38;33.57;;;12.50;;
13415;SDS011;6779;50.150;8.680;2022-12-13T04:25:04;39.47;;;12.00;;
13415;SDS011;6779;50.150;8.680;2022-12-13T04:27:30;32.33;;;13.33;;
13415;SDS011;6779;50.150;8.680;2022-12-13T04:29:55;38.83;;;13.00;;
13415;SDS011;6779;50.150;8.680;2022-12-13T04:32:21;34.93;;;12.80;;
13415;SDS011;6779;50.150;8.680;2022-12-13T04:34:46;32.73;;;10.67;;
13415;SDS011;6779;50.150;8.680;2022-12-13T04:37:12;34.67;;;12.73;;
13415;SDS011;6779;50.150;8.680;2022-12-13T04:39:37;38.00;;;14.00;;
13415;SDS011;6779;50.150;8.680;2022-12-13T04:42:03;33.07;;;13.17;;
13415;SDS011;6779;50.150;8.680;2022-12-13T04:44:29;40.20;;;13.17;;
13415;SDS011;6779;50.150;8.680;2022-12-13T04:46:55;37.47;;;13.27;;
13415;SDS011;6779;50.150;8.680;2022-12-13T04:49:20;35.70;;;12.40;;
13415;SDS011;6779;50.150;8.680;2022-12-13T04:51:46;31.33;;;12.53;;
13415;SDS011;6779;50.150;8.680;2022-12-13T04:54:11;34.13;;;13.60;;
13415;SDS011;6779;50.150;8.680;2022-12-13T04:56:37;33.80;;;12.73;;
13415;SDS011;6779;50.150;8.680;2022-12-13T04:59:02;38.07;;;13.67;;
13415;SDS011;6779;50.150;8.680;2022-12-13T05:01:28;39.13;;;11.97;;
13415;SDS011;6779;50.150;8.680;2022-12-13T05:03:54;35.73;;;12.97;;
13415;SDS011;6779;50.150;8.680;2022-12-13T05:06:19;31.03;;;12.50;;
13415;SDS011;6779;50.150;8.680;2022-12-13T05:08:45;34.13;;;12.80;;
13415;SDS011;6779;50.150;8.680;2022-12-13T05:11:11;30.80;;;11.80;;
13415;SDS011;6779;50.150;8.680;2022-12-13T05:13:36;34.37;;;13.57;;
13415;SDS011;6779;50.150;8.680;2022-12-13T05:16:04;35.30;;;12.30;;
13415;SDS011;6779;50.150;8.680;2022-12-13T05:18:31;38.50;;;13.70;;
13415;SDS011;6779;50.150;8.680;2022-12-13T05:21:04;37.57;;;13.47;;
13415;SDS011;6779;50.150;8.680;2022-12-13T05:23:31;26.20;;;11.43;;
13415;SDS011;6779;50.150;8.680;2022-12-13T05:25:57;34.57;;;12.57;;
13415;SDS011;6779;50.150;8.680;2022-12-13T05:28:24;33.23;;;11.80;;
13415;SDS011;6779;50.150;8.680;2022-12-13T05:30:52;37.67;;;13.57;;
13415;SDS011;6779;50.150;8.680;2022-12-13T05:33:19;37.53;;;11.67;;
13415;SDS011;6779;50.150;8.680;2022-12-13T05:35:45;27.93;;;11.80;;
13415;SDS011;6779;50.150;8.680;2022-12-13T05:38:11;35.70;;;12.73;;
13415;SDS011;6779;50.150;8.680;2022-12-13T05:40:37;33.03;;;13.23;;
13415;SDS011;6779;50.150;8.680;2022-12-13T05:43:02;34.37;;;11.57;;
13415;SDS011;6779;50.150;8.680;2022-12-13T05:45:31;36.33;;;11.50;;
13415;SDS011;6779;50.150;8.680;2022-12-13T05:47:57;35.50;;;13.03;;
13415;SDS011;6779;50.150;8.680;2022-12-13T05:50:23;35.90;;;12.33;;
13415;SDS011;6779;50.150;8.680;2022-12-13T05:52:49;29.03;;;11.80;;
13415;SDS011;6779;50.150;8.680;2022-12-13T05:55:14;29.73;;;12.47;;
13415;SDS011;6779;50.150;8.680;2022-12-13T05:57:40;31.23;;;12.27;;
13415;SDS011;6779;50.150;8.680;2022-12-13T06:00:07;36.40;;;14.53;;
13415;SDS011;6779;50.150;8.680;2022-12-13T06:02:37;37.77;;;13.00;;
13415;SDS011;6779;50.150;8.680;2022-12-13T06:05:04;38.43;;;12.93;;
13415;SDS011;6779;50.150;8.680;2022-12-13T06:07:30;32.67;;;13.80;;
13415;SDS011;6779;50.150;8.680;2022-12-13T06:09:56;38.57;;;14.27;;
13415;SDS011;6779;50.150;8.680;2022-12-13T06:12:21;38.37;;;13.67;;
13415;SDS011;6779;50.150;8.680;2022-12-13T06:14:47;41.23;;;16.10;;
13415;SDS011;6779;50.150;8.680;2022-12-13T06:17:13;32.23;;;13.00;;
13415;SDS011;6779;50.150;8.680;2022-12-13T06:19:39;34.30;;;11.53;;
13415;SDS011;6779;50.150;8.680;2022-12-13T06:22:04;31.97;;;13.27;;
13415;SDS011;6779;50.150;8.680;2022-12-13T06:24:30;40.33;;;14.30;;
13415;SDS011;6779;50.150;8.680;2022-12-13T06:26:56;35.33;;;12.93;;
13415;SDS011;6779;50.150;8.680;2022-12-13T06:29:22;36.40;;;13.33;;
13415;SDS011;6779;50.150;8.680;2022-12-13T06:31:55;34.10;;;12.23;;
13415;SDS011;6779;50.150;8.680;2022-12-13T06:34:21;34.60;;;13.20;;
13415;SDS011;6779;50.150;8.680;2022-12-13T06:36:47;26.87;;;11.53;;
13415;SDS011;6779;50.150;8.680;2022-12-13T06:39:12;33.83;;;14.03;;
13415;SDS011;6779;50.150;8.680;2022-12-13T06:41:39;38.07;;;12.90;;
13415;SDS011;6779;50.150;8.680;2022-12-13T06:44:05;36.27;;;14.53;;
13415;SDS011;6779;50.150;8.680;2022-12-13T06:46:31;34.20;;;13.00;;
13415;SDS011;6779;50.150;8.680;2022-12-13T06:48:56;31.83;;;13.83;;
13415;SDS011;6779;50.150;8.680;2022-12-13T06:51:22;35.07;;;12.57;;
13415;SDS011;6779;50.150;8.680;2022-12-13T06:53:47;34.03;;;11.43;;
13415;SDS011;6779;50.150;8.680;2022-12-13T06:56:13;35.00;;;13.43;;
13415;SDS011;6779;50.150;8.680;2022-12-13T06:58:39;36.17;;;13.03;;
13415;SDS011;6779;50.150;8.680;2022-12-13T07:01:09;34.03;;;12.63;;
13415;SDS011;6779;50.150;8.680;2022-12-13T07:03:37;35.60;;;12.83;;
13415;SDS011;6779;50.150;8.680;2022-12-13T07:06:03;30.27;;;12.33;;
13415;SDS011;6779;50.150;8.680;2022-12-13T07:08:36;23.77;;;11.57;;
13415;SDS011;6779;50.150;8.680;2022-12-13T07:11:02;34.00;;;14.03;;
13415;SDS011;6779;50.150;8.680;2022-12-13T07:13:28;33.87;;;12.67;;
13415;SDS011;6779;50.150;8.680;2022-12-13T07:15:55;31.43;;;12.33;;
13415;SDS011;6779;50.150;8.680;2022-12-13T07:18:20;27.30;;;11.93;;
13415;SDS011;6779;50.150;8.680;2022-12-13T07:20:46;31.40;;;12.47;;
13415;SDS011;6779;50.150;8.680;2022-12-13T07:23:11;30.57;;;12.80;;
13415;SDS011;6779;50.150;8.680;2022-12-13T07:25:37;27.53;;;11.47;;
13415;SDS011;6779;50.150;8.680;2022-12-13T07:28:04;34.20;;;13.20;;
13415;SDS011;6779;50.150;8.680;2022-12-13T07:30:32;30.97;;;12.47;;
13415;SDS011;6779;50.150;8.680;2022-12-13T07:32:59;27.27;;;11.57;;
13415;SDS011;6779;50.150;8.680;2022-12-13T07:35:26;36.67;;;12.83;;
13415;SDS011;6779;50.150;8.680;2022-12-13T07:37:52;32.90;;;12.40;;
13415;SDS011;6779;50.150;8.680;2022-12-13T07:40:17;37.93;;;13.50;;
13415;SDS011;6779;50.150;8.680;2022-12-13T07:42:52;33.07;;;12.37;;
13415;SDS011;6779;50.150;8.680;2022-12-13T07:45:19;30.80;;;12.63;;
13415;SDS011;6779;50.150;8.680;2022-12-13T07:47:46;27.93;;;11.27;;
13415;SDS011;6779;50.150;8.680;2022-12-13T07:50:12;34.70;;;12.43;;
13415;SDS011;6779;50.150;8.680;2022-12-13T07:52:38;35.43;;;12.77;;
13415;SDS011;6779;50.150;8.680;2022-12-13T07:55:04;37.60;;;13.20;;
13415;SDS011;6779;50.150;8.680;2022-12-13T07:57:31;31.87;;;12.53;;
13415;SDS011;6779;50.150;8.680;2022-12-13T07:59:57;30.40;;;10.90;;
13415;SDS011;6779;50.150;8.680;2022-12-13T08:02:22;29.53;;;11.33;;
13415;SDS011;6779;50.150;8.680;2022-12-13T08:04:49;28.63;;;11.43;;
13415;SDS011;6779;50.150;8.680;2022-12-13T08:07:14;33.10;;;12.73;;
13415;SDS011;6779;50.150;8.680;2022-12-13T08:09:40;34.17;;;12.47;;
13415;SDS011;6779;50.150;8.680;2022-12-13T08:12:05;32.40;;;12.23;;
13415;SDS011;6779;50.150;8.680;2022-12-13T08:14:31;36.00;;;14.27;;
13415;SDS011;6779;50.150;8.680;2022-12-13T08:16:57;35.40;;;13.10;;
13415;SDS011;6779;50.150;8.680;2022-12-13T08:19:23;34.43;;;12.37;;
13415;SDS011;6779;50.150;8.680;2022-12-13T08:21:48;35.50;;;13.33;;
13415;SDS011;6779;50.150;8.680;2022-12-13T08:24:16;32.60;;;13.27;;
13415;SDS011;6779;50.150;8.680;2022-12-13T08:26:42;31.37;;;11.73;;
13415;SDS011;6779;50.150;8.680;2022-12-13T08:29:08;32.93;;;12.10;;
13415;SDS011;6779;50.150;8.680;2022-12-13T08:31:34;38.07;;;13.67;;
13415;SDS011;6779;50.150;8.680;2022-12-13T08:33:59;32.27;;;12.50;;
13415;SDS011;6779;50.150;8.680;2022-12-13T08:36:25;36.23;;;13.80;;
13415;SDS011;6779;50.150;8.680;2022-12-13T08:38:53;32.07;;;12.63;;
13415;SDS011;6779;50.150;8.680;2022-12-13T08:41:20;39.67;;;12.63;;
13415;SDS011;6779;50.150;8.680;2022-12-13T08:43:45;34.33;;;11.97;;
13415;SDS011;6779;50.150;8.680;2022-12-13T08:46:11;27.40;;;11.90;;
13415;SDS011;6779;50.150;8.680;2022-12-13T08:48:37;37.43;;;11.97;;
13415;SDS011;6779;50.150;8.680;2022-12-13T08:51:03;32.93;;;12.53;;
13415;SDS011;6779;50.150;8.680;2022-12-13T08:53:31;38.67;;;12.80;;
13415;SDS011;6779;50.150;8.680;2022-12-13T08:56:00;34.37;;;12.97;;
13415;SDS011;6779;50.150;8.680;2022-12-13T08:58:27;30.33;;;11.27;;
13415;SDS011;6779;50.150;8.680;2022-12-13T09:00:53;34.60;;;13.57;;
13415;SDS011;6779;50.150;8.680;2022-12-13T09:03:19;30.00;;;10.90;;
13415;SDS011;6779;50.150;8.680;2022-12-13T09:05:44;29.83;;;11.90;;
13415;SDS011;6779;50.150;8.680;2022-12-13T09:08:10;32.43;;;11.07;;
13415;SDS011;6779;50.150;8.680;2022-12-13T09:10:36;32.60;;;12.73;;
13415;SDS011;6779;50.150;8.680;2022-12-13T09:13:01;32.20;;;12.63;;
13415;SDS011;6779;50.150;8.680;2022-12-13T09:15:27;28.87;;;11.70;;
13415;SDS011;6779;50.150;8.680;2022-12-13T09:17:55;27.43;;;12.00;;
13415;SDS011;6779;50.150;8.680;2022-12-13T09:20:20;35.07;;;11.77;;
13415;SDS011;6779;50.150;8.680;2022-12-13T09:22:46;33.83;;;13.03;;
13415;SDS011;6779;50.150;8.680;2022-12-13T09:25:11;36.40;;;12.17;;
13415;SDS011;6779;50.150;8.680;2022-12-13T09:27:37;30.63;;;11.73;;
13415;SDS011;6779;50.150;8.680;2022-12-13T09:30:03;38.17;;;12.40;;
13415;SDS011;6779;50.150;8.680;2022-12-13T09:32:30;35.57;;;12.40;;
13415;SDS011;6779;50.150;8.680;2022-12-13T09:34:56;28.13;;;10.43;;
13415;SDS011;6779;50.150;8.680;2022-12-13T09:37:21;32.20;;;13.07;;
13415;SDS011;6779;50.150;8.680;2022-12-13T09:39:47;25.57;;;10.90;;
13415;SDS011;6779;50.150;8.680;2022-12-13T09:42:30;34.90;;;13.30;;
13415;SDS011;6779;50.150;8.680;2022-12-13T09:45:03;32.03;;;11.50;;
13415;SDS011;6779;50.150;8.680;2022-12-13T09:47:33;30.33;;;12.50;;
13415;SDS011;6779;50.150;8.680;2022-12-13T09:50:24;29.10;;;12.63;;
13415;SDS011;6779;50.150;8.680;2022-12-13T09:52:51;33.07;;;13.63;;
13415;SDS011;6779;50.150;8.680;2022-12-13T09:55:27;34.10;;;12.40;;
13415;SDS011;6779;50.150;8.680;2022-12-13T09:57:56;34.03;;;13.07;;
13415;SDS011;6779;50.150;8.680;2022-12-13T10:00:35;25.80;;;11.80;;
13415;SDS011;6779;50.150;8.680;2022-12-13T10:03:01;32.13;;;12.87;;
13415;SDS011;6779;50.150;8.680;2022-12-13T10:05:31;29.13;;;12.53;;
13415;SDS011;6779;50.150;8.680;2022-12-13T10:07:58;31.50;;;12.47;;
13415;SDS011;6779;50.150;8.680;2022-12-13T10:10:28;32.80;;;13.33;;
13415;SDS011;6779;50.150;8.680;2022-12-13T10:13:00;31.97;;;12.47;;
13415;SDS011;6779;50.150;8.680;2022-12-13T10:15:51;25.47;;;11.77;;
13415;SDS011;6779;50.150;8.680;2022-12-13T10:18:39;25.83;;;11.40;;
13415;SDS011;6779;50.150;8.680;2022-12-13T10:21:14;30.17;;;12.30;;
13415;SDS011;6779;50.150;8.680;2022-12-13T10:23:44;31.70;;;12.77;;
13415;SDS011;6779;50.150;8.680;2022-12-13T10:26:10;30.20;;;12.77;;
13415;SDS011;6779;50.150;8.680;2022-12-13T10:28:37;31.30;;;13.53;;
13415;SDS011;6779;50.150;8.680;2022-12-13T10:31:04;31.90;;;13.70;;
13415;SDS011;6779;50.150;8.680;2022-12-13T10:33:36;31.43;;;12.60;;
13415;SDS011;6779;50.150;8.680;2022-12-13T10:36:10;28.73;;;11.53;;
13415;SDS011;6779;50.150;8.680;2022-12-13T10:38:41;30.63;;;12.07;;
13415;SDS011;6779;50.150;8.680;2022-12-13T10:46:50;29.00;;;11.47;;
13415;SDS011;6779;50.150;8.680;2022-12-13T10:49:24;33.10;;;13.17;;
13415;SDS011;6779;50.150;8.680;2022-12-13T10:51:54;30.23;;;12.47;;
13415;SDS011;6779;50.150;8.680;2022-12-13T10:54:28;35.37;;;13.97;;
13415;SDS011;6779;50.150;8.680;2022-12-13T10:56:56;30.90;;;13.47;;
13415;SDS011;6779;50.150;8.680;2022-12-13T10:59:29;29.27;;;13.17;;
13415;SDS011;6779;50.150;8.680;2022-12-13T11:01:58;27.87;;;12.20;;
13415;SDS011;6779;50.150;8.680;2022-12-13T11:04:29;26.17;;;11.63;;
13415;SDS011;6779;50.150;8.680;2022-12-13T11:07:00;32.93;;;12.03;;
13415;SDS011;6779;50.150;8.680;2022-12-13T11:09:44;27.63;;;11.80;;
13415;SDS011;6779;50.150;8.680;2022-12-13T11:12:10;29.60;;;12.83;;
13415;SDS011;6779;50.150;8.680;2022-12-13T11:14:46;29.27;;;12.67;;
13415;SDS011;6779;50.150;8.680;2022-12-13T11:17:16;26.80;;;12.93;;
13415;SDS011;6779;50.150;8.680;2022-12-13T11:19:49;30.20;;;12.40;;
13415;SDS011;6779;50.150;8.680;2022-12-13T11:22:24;26.40;;;12.30;;
13415;SDS011;6779;50.150;8.680;2022-12-13T11:25:05;27.10;;;12.90;;
13415;SDS011;6779;50.150;8.680;2022-12-13T11:36:10;23.57;;;13.37;;
13415;SDS011;6779;50.150;8.680;2022-12-13T11:41:24;25.03;;;14.27;;
13415;SDS011;6779;50.150;8.680;2022-12-13T11:43:54;22.37;;;15.13;;
13415;SDS011;6779;50.150;8.680;2022-12-13T11:46:33;24.30;;;14.87;;
13415;SDS011;6779;50.150;8.680;2022-12-13T11:49:16;21.10;;;13.30;;
13415;SDS011;6779;50.150;8.680;2022-12-13T11:51:55;22.00;;;14.23;;
13415;SDS011;6779;50.150;8.680;2022-12-13T11:54:44;21.20;;;13.07;;
13415;SDS011;6779;50.150;8.680;2022-12-13T11:57:29;21.03;;;13.70;;
13415;SDS011;6779;50.150;8.680;2022-12-13T12:02:42;23.57;;;13.23;;
13415;SDS011;6779;50.150;8.680;2022-12-13T12:08:34;22.47;;;12.73;;
13415;SDS011;6779;50.150;8.680;2022-12-13T12:11:17;22.90;;;12.70;;
13415;SDS011;6779;50.150;8.680;2022-12-13T12:13:54;21.83;;;12.43;;
13415;SDS011;6779;50.150;8.680;2022-12-13T12:16:32;23.67;;;13.17;;
13415;SDS011;6779;50.150;8.680;2022-12-13T12:19:04;19.47;;;11.67;;
13415;SDS011;6779;50.150;8.680;2022-12-13T12:21:44;23.73;;;12.03;;
13415;SDS011;6779;50.150;8.680;2022-12-13T12:24:20;22.67;;;11.67;;
13415;SDS011;6779;50.150;8.680;2022-12-13T12:29:27;24.23;;;11.70;;
13415;SDS011;6779;50.150;8.680;2022-12-13T12:43:35;24.73;;;12.63;;
13415;SDS011;6779;50.150;8.680;2022-12-13T12:51:46;23.47;;;11.83;;
13415;SDS011;6779;50.150;8.680;2022-12-13T13:00:29;25.07;;;11.93;;
13415;SDS011;6779;50.150;8.680;2022-12-13T13:03:24;25.80;;;12.43;;
13415;SDS011;6779;50.150;8.680;2022-12-13T13:05:55;23.90;;;11.27;;
13415;SDS011;6779;50.150;8.680;2022-12-13T13:10:59;24.80;;;11.83;;
13415;SDS011;6779;50.150;8.680;2022-12-13T13:13:34;20.33;;;10.73;;
13415;SDS011;6779;50.150;8.680;2022-12-13T13:16:03;26.93;;;12.87;;
13415;SDS011;6779;50.150;8.680;2022-12-13T13:18:42;22.07;;;11.73;;
13415;SDS011;6779;50.150;8.680;2022-12-13T13:26:32;25.43;;;12.03;;
13415;SDS011;6779;50.150;8.680;2022-12-13T13:34:38;23.77;;;12.10;;
13415;SDS011;6779;50.150;8.680;2022-12-13T13:40:24;24.23;;;12.70;;
13415;SDS011;6779;50.150;8.680;2022-12-13T13:51:41;20.53;;;10.87;;
13415;SDS011;6779;50.150;8.680;2022-12-13T14:03:30;28.57;;;12.33;;
13415;SDS011;6779;50.150;8.680;2022-12-13T14:06:19;24.17;;;11.77;;
13415;SDS011;6779;50.150;8.680;2022-12-13T14:21:23;26.03;;;12.00;;
13415;SDS011;6779;50.150;8.680;2022-12-13T14:23:58;25.10;;;12.20;;
13415;SDS011;6779;50.150;8.680;2022-12-13T14:27:04;25.10;;;11.03;;
13415;SDS011;6779;50.150;8.680;2022-12-13T14:29:41;27.17;;;11.03;;
13415;SDS011;6779;50.150;8.680;2022-12-13T14:32:09;30.43;;;13.00;;
13415;SDS011;6779;50.150;8.680;2022-12-13T14:34:45;26.93;;;12.87;;
13415;SDS011;6779;50.150;8.680;2022-12-13T14:39:54;28.00;;;12.07;;
13415;SDS011;6779;50.150;8.680;2022-12-13T14:42:30;25.43;;;11.80;;
13415;SDS011;6779;50.150;8.680;2022-12-13T14:45:13;21.67;;;11.53;;
13415;SDS011;6779;50.150;8.680;2022-12-13T14:47:45;36.77;;;16.00;;
13415;SDS011;6779;50.150;8.680;2022-12-13T14:50:12;28.70;;;12.23;;
13415;SDS011;6779;50.150;8.680;2022-12-13T14:52:44;24.03;;;11.83;;
13415;SDS011;6779;50.150;8.680;2022-12-13T14:55:20;27.93;;;11.97;;
13415;SDS011;6779;50.150;8.680;2022-12-13T14:57:50;25.37;;;11.53;;
13415;SDS011;6779;50.150;8.680;2022-12-13T15:00:22;29.77;;;13.37;;
13415;SDS011;6779;50.150;8.680;2022-12-13T15:02:52;29.67;;;13.00;;
13415;SDS011;6779;50.150;8.680;2022-12-13T15:05:24;24.47;;;11.07;;
13415;SDS011;6779;50.150;8.680;2022-12-13T15:07:58;27.60;;;11.93;;
13415;SDS011;6779;50.150;8.680;2022-12-13T15:10:27;28.80;;;12.27;;
13415;SDS011;6779;50.150;8.680;2022-12-13T15:12:55;29.60;;;12.37;;
13415;SDS011;6779;50.150;8.680;2022-12-13T15:15:26;25.20;;;12.80;;
13415;SDS011;6779;50.150;8.680;2022-12-13T15:18:04;28.83;;;11.33;;
13415;SDS011;6779;50.150;8.680;2022-12-13T15:20:31;29.37;;;13.10;;
13415;SDS011;6779;50.150;8.680;2022-12-13T15:22:58;28.60;;;13.23;;
13415;SDS011;6779;50.150;8.680;2022-12-13T15:25:31;24.73;;;11.50;;
13415;SDS011;6779;50.150;8.680;2022-12-13T15:27:59;27.47;;;12.03;;
13415;SDS011;6779;50.150;8.680;2022-12-13T15:30:25;27.43;;;11.53;;
13415;SDS011;6779;50.150;8.680;2022-12-13T15:33:03;25.73;;;11.93;;
13415;SDS011;6779;50.150;8.680;2022-12-13T15:35:58;28.00;;;12.20;;
13415;SDS011;6779;50.150;8.680;2022-12-13T15:41:17;27.97;;;12.00;;
13415;SDS011;6779;50.150;8.680;2022-12-13T15:43:46;30.20;;;12.37;;
13415;SDS011;6779;50.150;8.680;2022-12-13T15:46:22;25.87;;;11.50;;
13415;SDS011;6779;50.150;8.680;2022-12-13T15:48:56;22.20;;;11.20;;
13415;SDS011;6779;50.150;8.680;2022-12-13T15:51:26;27.57;;;11.57;;
13415;SDS011;6779;50.150;8.680;2022-12-13T15:54:05;25.73;;;12.27;;
13415;SDS011;6779;50.150;8.680;2022-12-13T15:56:35;28.40;;;12.57;;
13415;SDS011;6779;50.150;8.680;2022-12-13T15:59:03;30.37;;;12.73;;
13415;SDS011;6779;50.150;8.680;2022-12-13T16:01:31;27.57;;;11.93;;
13415;SDS011;6779;50.150;8.680;2022-12-13T16:03:58;26.73;;;12.40;;
13415;SDS011;6779;50.150;8.680;2022-12-13T16:06:27;26.57;;;12.43;;
13415;SDS011;6779;50.150;8.680;2022-12-13T16:08:55;32.20;;;13.10;;
13415;SDS011;6779;50.150;8.680;2022-12-13T16:13:54;27.13;;;13.13;;
13415;SDS011;6779;50.150;8.680;2022-12-13T16:17:15;27.87;;;12.83;;
13415;SDS011;6779;50.150;8.680;2022-12-13T16:19:49;34.87;;;12.83;;
13415;SDS011;6779;50.150;8.680;2022-12-13T16:22:17;33.03;;;13.67;;
13415;SDS011;6779;50.150;8.680;2022-12-13T16:24:46;29.17;;;12.87;;
13415;SDS011;6779;50.150;8.680;2022-12-13T16:27:12;30.27;;;12.73;;
13415;SDS011;6779;50.150;8.680;2022-12-13T16:29:38;26.70;;;13.60;;
13415;SDS011;6779;50.150;8.680;2022-12-13T16:32:04;39.23;;;14.53;;
13415;SDS011;6779;50.150;8.680;2022-12-13T16:34:29;30.50;;;13.63;;
13415;SDS011;6779;50.150;8.680;2022-12-13T16:36:55;37.60;;;15.43;;
13415;SDS011;6779;50.150;8.680;2022-12-13T16:39:23;34.93;;;15.37;;
13415;SDS011;6779;50.150;8.680;2022-12-13T16:41:49;29.20;;;13.67;;
13415;SDS011;6779;50.150;8.680;2022-12-13T16:44:36;29.50;;;13.37;;
13415;SDS011;6779;50.150;8.680;2022-12-13T16:47:02;30.83;;;14.97;;
13415;SDS011;6779;50.150;8.680;2022-12-13T16:49:32;28.43;;;13.57;;
13415;SDS011;6779;50.150;8.680;2022-12-13T16:51:57;28.97;;;12.87;;
13415;SDS011;6779;50.150;8.680;2022-12-13T16:54:24;31.80;;;14.97;;